sensor_id;sensor_type;location;lat;lon;timestamp;temperature;humidity
6164;DHT22;3114;48.362;10.994;2023-02-15T00:01:22;3.60;99.90
6164;DHT22;3114;48.362;10.994;2023-02-15T00:03:51;3.60;99.90
6164;DHT22;3114;48.362;10.994;2023-02-15T00:06:18;3.40;99.90
6164;DHT22;3114;48.362;10.994;2023-02-15T00:08:44;3.20;99.90
6164;DHT22;3114;48.362;10.994;2023-02-15T00:11:13;3.20;99.90
6164;DHT22;3114;48.362;10.994;2023-02-15T00:13:41;3.20;99.90
6164;DHT22;3114;48.362;10.994;2023-02-15T00:16:10;3.30;99.90
6164;DHT22;3114;48.362;10.994;2023-02-15T00:18:38;3.20;99.90
6164;DHT22;3114;48.362;10.994;2023-02-15T00:21:09;3.30;99.90
6164;DHT22;3114;48.362;10.994;2023-02-15T00:23:36;3.30;99.90
6164;DHT22;3114;48.362;10.994;2023-02-15T00:26:05;3.30;99.90
6164;DHT22;3114;48.362;10.994;2023-02-15T00:28:33;3.30;99.90
6164;DHT22;3114;48.362;10.994;2023-02-15T00:31:04;3.30;99.90
6164;DHT22;3114;48.362;10.994;2023-02-15T00:33:31;3.30;99.90
6164;DHT22;3114;48.362;10.994;2023-02-15T00:35:58;3.20;99.90
6164;DHT22;3114;48.362;10.994;2023-02-15T00:38:28;3.40;99.90
6164;DHT22;3114;48.362;10.994;2023-02-15T00:40:56;3.30;99.90
6164;DHT22;3114;48.362;10.994;2023-02-15T00:43:24;3.30;99.90
6164;DHT22;3114;48.362;10.994;2023-02-15T00:45:52;3.30;99.90
6164;DHT22;3114;48.362;10.994;2023-02-15T00:48:19;3.20;99.90
6164;DHT22;3114;48.362;10.994;2023-02-15T00:50:48;3.10;99.90
6164;DHT22;3114;48.362;10.994;2023-02-15T00:53:15;3.20;99.90
6164;DHT22;3114;48.362;10.994;2023-02-15T00:55:43;3.20;99.90
6164;DHT22;3114;48.362;10.994;2023-02-15T00:58:11;3.20;99.90
6164;DHT22;3114;48.362;10.994;2023-02-15T01:00:38;3.20;99.90
6164;DHT22;3114;48.362;10.994;2023-02-15T01:03:06;3.20;99.90
6164;DHT22;3114;48.362;10.994;2023-02-15T01:05:33;3.20;99.90
6164;DHT22;3114;48.362;10.994;2023-02-15T01:08:00;3.10;99.90
6164;DHT22;3114;48.362;10.994;2023-02-15T01:10:28;3.10;99.90
6164;DHT22;3114;48.362;10.994;2023-02-15T01:12:56;3.10;99.90
6164;DHT22;3114;48.362;10.994;2023-02-15T01:15:24;3.10;99.90
6164;DHT22;3114;48.362;10.994;2023-02-15T01:17:51;3.10;99.90
6164;DHT22;3114;48.362;10.994;2023-02-15T01:20:19;3.10;99.90
6164;DHT22;3114;48.362;10.994;2023-02-15T01:22:46;3.20;99.90
6164;DHT22;3114;48.362;10.994;2023-02-15T01:25:15;3.10;99.90
6164;DHT22;3114;48.362;10.994;2023-02-15T01:27:42;3.00;99.90
6164;DHT22;3114;48.362;10.994;2023-02-15T01:30:12;3.00;99.90
6164;DHT22;3114;48.362;10.994;2023-02-15T01:32:39;3.00;99.90
6164;DHT22;3114;48.362;10.994;2023-02-15T01:35:07;3.10;99.90
6164;DHT22;3114;48.362;10.994;2023-02-15T01:37:34;3.10;99.90
6164;DHT22;3114;48.362;10.994;2023-02-15T01:40:01;3.10;99.90
6164;DHT22;3114;48.362;10.994;2023-02-15T01:42:29;3.10;99.90
6164;DHT22;3114;48.362;10.994;2023-02-15T01:44:58;3.10;99.90
6164;DHT22;3114;48.362;10.994;2023-02-15T01:47:32;3.00;99.90
6164;DHT22;3114;48.362;10.994;2023-02-15T01:50:06;3.20;99.90
6164;DHT22;3114;48.362;10.994;2023-02-15T01:52:36;3.10;99.90
6164;DHT22;3114;48.362;10.994;2023-02-15T01:55:04;3.10;99.90
6164;DHT22;3114;48.362;10.994;2023-02-15T01:57:32;3.00;99.90
6164;DHT22;3114;48.362;10.994;2023-02-15T02:00:00;3.10;99.90
6164;DHT22;3114;48.362;10.994;2023-02-15T02:02:29;3.10;99.90
6164;DHT22;3114;48.362;10.994;2023-02-15T02:04:59;3.10;99.90
6164;DHT22;3114;48.362;10.994;2023-02-15T02:07:31;3.10;99.90
6164;DHT22;3114;48.362;10.994;2023-02-15T02:09:59;3.10;99.90
6164;DHT22;3114;48.362;10.994;2023-02-15T02:12:27;3.10;99.90
6164;DHT22;3114;48.362;10.994;2023-02-15T02:14:54;3.10;99.90
6164;DHT22;3114;48.362;10.994;2023-02-15T02:17:28;3.10;99.90
6164;DHT22;3114;48.362;10.994;2023-02-15T02:20:26;3.20;99.90
6164;DHT22;3114;48.362;10.994;2023-02-15T02:23:23;3.10;99.90
6164;DHT22;3114;48.362;10.994;2023-02-15T02:26:11;3.10;99.90
6164;DHT22;3114;48.362;10.994;2023-02-15T02:29:02;3.10;99.90
6164;DHT22;3114;48.362;10.994;2023-02-15T02:31:43;3.10;99.90
6164;DHT22;3114;48.362;10.994;2023-02-15T02:34:19;3.10;99.90
6164;DHT22;3114;48.362;10.994;2023-02-15T02:36:52;3.10;99.90
6164;DHT22;3114;48.362;10.994;2023-02-15T02:39:27;3.10;99.90
6164;DHT22;3114;48.362;10.994;2023-02-15T02:42:00;3.10;99.90
6164;DHT22;3114;48.362;10.994;2023-02-15T02:44:33;3.10;99.90
6164;DHT22;3114;48.362;10.994;2023-02-15T02:47:05;3.20;99.90
6164;DHT22;3114;48.362;10.994;2023-02-15T02:49:37;3.20;99.90
6164;DHT22;3114;48.362;10.994;2023-02-15T02:52:07;3.20;99.90
6164;DHT22;3114;48.362;10.994;2023-02-15T02:54:35;3.20;99.90
6164;DHT22;3114;48.362;10.994;2023-02-15T02:57:05;3.30;99.90
6164;DHT22;3114;48.362;10.994;2023-02-15T02:59:37;3.10;99.90
6164;DHT22;3114;48.362;10.994;2023-02-15T03:02:08;3.40;99.90
6164;DHT22;3114;48.362;10.994;2023-02-15T03:04:42;3.10;99.90
6164;DHT22;3114;48.362;10.994;2023-02-15T03:07:12;3.10;99.90
6164;DHT22;3114;48.362;10.994;2023-02-15T03:09:50;3.00;99.90
6164;DHT22;3114;48.362;10.994;2023-02-15T03:12:20;3.10;99.90
6164;DHT22;3114;48.362;10.994;2023-02-15T03:14:50;3.00;99.90
6164;DHT22;3114;48.362;10.994;2023-02-15T03:17:20;3.10;99.90
6164;DHT22;3114;48.362;10.994;2023-02-15T03:19:51;3.00;99.90
6164;DHT22;3114;48.362;10.994;2023-02-15T03:22:26;2.90;99.90
6164;DHT22;3114;48.362;10.994;2023-02-15T03:24:59;3.00;99.90
6164;DHT22;3114;48.362;10.994;2023-02-15T03:27:32;3.00;99.90
6164;DHT22;3114;48.362;10.994;2023-02-15T03:30:00;3.10;99.90
6164;DHT22;3114;48.362;10.994;2023-02-15T03:32:29;3.10;99.90
6164;DHT22;3114;48.362;10.994;2023-02-15T03:34:59;3.10;99.90
6164;DHT22;3114;48.362;10.994;2023-02-15T03:37:30;3.20;99.90
6164;DHT22;3114;48.362;10.994;2023-02-15T03:40:00;3.20;99.90
6164;DHT22;3114;48.362;10.994;2023-02-15T03:42:55;3.10;99.90
6164;DHT22;3114;48.362;10.994;2023-02-15T03:45:28;3.00;99.90
6164;DHT22;3114;48.362;10.994;2023-02-15T03:47:57;2.90;99.90
6164;DHT22;3114;48.362;10.994;2023-02-15T03:50:29;2.90;99.90
6164;DHT22;3114;48.362;10.994;2023-02-15T03:53:18;3.00;99.90
6164;DHT22;3114;48.362;10.994;2023-02-15T03:55:47;3.10;99.90
6164;DHT22;3114;48.362;10.994;2023-02-15T03:58:15;3.20;99.90
6164;DHT22;3114;48.362;10.994;2023-02-15T04:01:03;3.10;99.90
6164;DHT22;3114;48.362;10.994;2023-02-15T04:03:53;3.00;99.90
6164;DHT22;3114;48.362;10.994;2023-02-15T04:06:23;2.90;99.90
6164;DHT22;3114;48.362;10.994;2023-02-15T04:08:50;2.80;99.90
6164;DHT22;3114;48.362;10.994;2023-02-15T04:11:34;2.90;99.90
6164;DHT22;3114;48.362;10.994;2023-02-15T04:14:01;2.80;99.90
6164;DHT22;3114;48.362;10.994;2023-02-15T04:16:48;2.70;99.90
6164;DHT22;3114;48.362;10.994;2023-02-15T04:19:15;2.70;99.90
6164;DHT22;3114;48.362;10.994;2023-02-15T04:22:00;2.70;99.90
6164;DHT22;3114;48.362;10.994;2023-02-15T04:24:44;2.80;99.90
6164;DHT22;3114;48.362;10.994;2023-02-15T04:27:29;2.90;99.90
6164;DHT22;3114;48.362;10.994;2023-02-15T04:29:55;2.80;99.90
6164;DHT22;3114;48.362;10.994;2023-02-15T04:32:22;2.90;99.90
6164;DHT22;3114;48.362;10.994;2023-02-15T04:34:49;2.70;99.90
6164;DHT22;3114;48.362;10.994;2023-02-15T04:37:17;2.90;99.90
6164;DHT22;3114;48.362;10.994;2023-02-15T04:39:44;2.90;99.90
6164;DHT22;3114;48.362;10.994;2023-02-15T04:42:11;2.70;99.90
6164;DHT22;3114;48.362;10.994;2023-02-15T04:44:38;2.80;99.90
6164;DHT22;3114;48.362;10.994;2023-02-15T04:47:05;2.90;99.90
6164;DHT22;3114;48.362;10.994;2023-02-15T04:49:32;2.90;99.90
6164;DHT22;3114;48.362;10.994;2023-02-15T04:51:58;3.00;99.90
6164;DHT22;3114;48.362;10.994;2023-02-15T04:54:27;3.00;99.90
6164;DHT22;3114;48.362;10.994;2023-02-15T04:56:54;2.90;99.90
6164;DHT22;3114;48.362;10.994;2023-02-15T04:59:20;2.90;99.90
6164;DHT22;3114;48.362;10.994;2023-02-15T05:01:47;2.90;99.90
6164;DHT22;3114;48.362;10.994;2023-02-15T05:04:14;2.90;99.90
6164;DHT22;3114;48.362;10.994;2023-02-15T05:06:41;2.90;99.90
6164;DHT22;3114;48.362;10.994;2023-02-15T05:09:08;2.80;99.90
6164;DHT22;3114;48.362;10.994;2023-02-15T05:11:36;2.80;99.90
6164;DHT22;3114;48.362;10.994;2023-02-15T05:14:03;2.60;99.90
6164;DHT22;3114;48.362;10.994;2023-02-15T05:16:30;2.70;99.90
6164;DHT22;3114;48.362;10.994;2023-02-15T05:18:57;2.60;99.90
6164;DHT22;3114;48.362;10.994;2023-02-15T05:21:24;2.50;99.90
6164;DHT22;3114;48.362;10.994;2023-02-15T05:23:51;2.40;99.90
6164;DHT22;3114;48.362;10.994;2023-02-15T05:26:20;2.50;99.90
6164;DHT22;3114;48.362;10.994;2023-02-15T05:29:06;2.40;99.90
6164;DHT22;3114;48.362;10.994;2023-02-15T05:31:34;2.40;99.90
6164;DHT22;3114;48.362;10.994;2023-02-15T05:34:01;2.60;99.90
6164;DHT22;3114;48.362;10.994;2023-02-15T05:36:28;2.60;99.90
6164;DHT22;3114;48.362;10.994;2023-02-15T05:38:55;2.60;99.90
6164;DHT22;3114;48.362;10.994;2023-02-15T05:41:22;2.30;99.90
6164;DHT22;3114;48.362;10.994;2023-02-15T05:43:51;2.40;99.90
6164;DHT22;3114;48.362;10.994;2023-02-15T05:46:19;2.50;99.90
6164;DHT22;3114;48.362;10.994;2023-02-15T05:48:46;2.60;99.90
6164;DHT22;3114;48.362;10.994;2023-02-15T05:51:13;2.60;99.90
6164;DHT22;3114;48.362;10.994;2023-02-15T05:53:41;2.70;99.90
6164;DHT22;3114;48.362;10.994;2023-02-15T05:56:10;2.60;99.90
6164;DHT22;3114;48.362;10.994;2023-02-15T05:58:38;2.60;99.90
6164;DHT22;3114;48.362;10.994;2023-02-15T06:01:09;2.60;99.90
6164;DHT22;3114;48.362;10.994;2023-02-15T06:03:38;2.70;99.90
6164;DHT22;3114;48.362;10.994;2023-02-15T06:06:05;2.70;99.90
6164;DHT22;3114;48.362;10.994;2023-02-15T06:08:32;2.80;99.90
6164;DHT22;3114;48.362;10.994;2023-02-15T06:11:00;2.80;99.90
6164;DHT22;3114;48.362;10.994;2023-02-15T06:13:27;2.80;99.90
6164;DHT22;3114;48.362;10.994;2023-02-15T06:15:54;2.80;99.90
6164;DHT22;3114;48.362;10.994;2023-02-15T06:18:21;2.80;99.90
6164;DHT22;3114;48.362;10.994;2023-02-15T06:20:49;2.90;99.90
6164;DHT22;3114;48.362;10.994;2023-02-15T06:23:16;2.80;99.90
6164;DHT22;3114;48.362;10.994;2023-02-15T06:25:44;2.80;99.90
6164;DHT22;3114;48.362;10.994;2023-02-15T06:28:11;2.80;99.90
6164;DHT22;3114;48.362;10.994;2023-02-15T06:30:38;2.80;99.90
6164;DHT22;3114;48.362;10.994;2023-02-15T06:33:05;2.90;99.90
6164;DHT22;3114;48.362;10.994;2023-02-15T06:35:32;2.80;99.90
6164;DHT22;3114;48.362;10.994;2023-02-15T06:38:00;2.80;99.90
6164;DHT22;3114;48.362;10.994;2023-02-15T06:40:27;2.80;99.90
6164;DHT22;3114;48.362;10.994;2023-02-15T06:42:54;2.80;99.90
6164;DHT22;3114;48.362;10.994;2023-02-15T06:45:21;2.80;99.90
6164;DHT22;3114;48.362;10.994;2023-02-15T06:47:47;2.80;99.90
6164;DHT22;3114;48.362;10.994;2023-02-15T06:50:14;2.70;99.90
6164;DHT22;3114;48.362;10.994;2023-02-15T06:52:41;2.80;99.90
6164;DHT22;3114;48.362;10.994;2023-02-15T06:55:09;2.70;99.90
6164;DHT22;3114;48.362;10.994;2023-02-15T06:57:36;2.80;99.90
6164;DHT22;3114;48.362;10.994;2023-02-15T07:00:03;2.80;99.90
6164;DHT22;3114;48.362;10.994;2023-02-15T07:02:31;2.90;99.90
6164;DHT22;3114;48.362;10.994;2023-02-15T07:04:58;2.60;99.90
6164;DHT22;3114;48.362;10.994;2023-02-15T07:07:25;1.90;99.90
6164;DHT22;3114;48.362;10.994;2023-02-15T07:09:52;2.10;99.90
6164;DHT22;3114;48.362;10.994;2023-02-15T07:12:21;2.20;99.90
6164;DHT22;3114;48.362;10.994;2023-02-15T07:15:05;2.20;99.90
6164;DHT22;3114;48.362;10.994;2023-02-15T07:17:33;2.30;99.90
6164;DHT22;3114;48.362;10.994;2023-02-15T07:20:00;2.50;99.90
6164;DHT22;3114;48.362;10.994;2023-02-15T07:22:27;2.50;99.90
6164;DHT22;3114;48.362;10.994;2023-02-15T07:24:54;2.60;99.90
6164;DHT22;3114;48.362;10.994;2023-02-15T07:27:22;2.90;99.90
6164;DHT22;3114;48.362;10.994;2023-02-15T07:29:49;2.70;99.90
6164;DHT22;3114;48.362;10.994;2023-02-15T07:32:16;2.80;99.90
6164;DHT22;3114;48.362;10.994;2023-02-15T07:34:43;2.80;99.90
6164;DHT22;3114;48.362;10.994;2023-02-15T07:37:10;2.90;99.90
6164;DHT22;3114;48.362;10.994;2023-02-15T07:39:37;3.00;99.90
6164;DHT22;3114;48.362;10.994;2023-02-15T07:42:03;2.60;99.90
6164;DHT22;3114;48.362;10.994;2023-02-15T07:44:32;2.10;99.90
6164;DHT22;3114;48.362;10.994;2023-02-15T07:46:58;1.90;99.90
6164;DHT22;3114;48.362;10.994;2023-02-15T07:49:25;1.80;99.90
6164;DHT22;3114;48.362;10.994;2023-02-15T07:51:52;1.80;99.90
6164;DHT22;3114;48.362;10.994;2023-02-15T07:54:19;1.70;99.90
6164;DHT22;3114;48.362;10.994;2023-02-15T07:56:46;1.70;99.90
6164;DHT22;3114;48.362;10.994;2023-02-15T07:59:13;2.10;99.90
6164;DHT22;3114;48.362;10.994;2023-02-15T08:01:42;1.80;99.90
6164;DHT22;3114;48.362;10.994;2023-02-15T08:04:09;1.50;99.90
6164;DHT22;3114;48.362;10.994;2023-02-15T08:06:37;1.60;99.90
6164;DHT22;3114;48.362;10.994;2023-02-15T08:09:04;1.90;99.90
6164;DHT22;3114;48.362;10.994;2023-02-15T08:11:33;1.10;99.90
6164;DHT22;3114;48.362;10.994;2023-02-15T08:14:04;1.30;99.90
6164;DHT22;3114;48.362;10.994;2023-02-15T08:16:34;1.70;99.90
6164;DHT22;3114;48.362;10.994;2023-02-15T08:19:05;2.20;99.90
6164;DHT22;3114;48.362;10.994;2023-02-15T08:21:33;2.50;99.90
6164;DHT22;3114;48.362;10.994;2023-02-15T08:24:00;2.50;99.90
6164;DHT22;3114;48.362;10.994;2023-02-15T08:26:28;2.70;99.90
6164;DHT22;3114;48.362;10.994;2023-02-15T08:28:57;2.70;99.90
6164;DHT22;3114;48.362;10.994;2023-02-15T08:31:24;2.80;99.90
6164;DHT22;3114;48.362;10.994;2023-02-15T08:33:53;2.90;99.90
6164;DHT22;3114;48.362;10.994;2023-02-15T08:36:23;3.10;99.90
6164;DHT22;3114;48.362;10.994;2023-02-15T08:38:52;3.20;99.90
6164;DHT22;3114;48.362;10.994;2023-02-15T08:41:21;3.20;99.90
6164;DHT22;3114;48.362;10.994;2023-02-15T08:43:50;3.30;99.90
6164;DHT22;3114;48.362;10.994;2023-02-15T08:46:18;3.30;99.90
6164;DHT22;3114;48.362;10.994;2023-02-15T08:48:45;3.40;99.90
6164;DHT22;3114;48.362;10.994;2023-02-15T08:51:14;3.40;99.90
6164;DHT22;3114;48.362;10.994;2023-02-15T08:53:44;3.20;99.90
6164;DHT22;3114;48.362;10.994;2023-02-15T08:56:12;3.20;99.90
6164;DHT22;3114;48.362;10.994;2023-02-15T08:58:39;3.30;99.90
6164;DHT22;3114;48.362;10.994;2023-02-15T09:01:09;3.40;99.90
6164;DHT22;3114;48.362;10.994;2023-02-15T09:03:37;3.60;99.90
6164;DHT22;3114;48.362;10.994;2023-02-15T09:06:05;3.60;99.90
6164;DHT22;3114;48.362;10.994;2023-02-15T09:08:32;3.70;99.90
6164;DHT22;3114;48.362;10.994;2023-02-15T09:11:09;3.80;99.90
6164;DHT22;3114;48.362;10.994;2023-02-15T09:13:37;3.80;99.90
6164;DHT22;3114;48.362;10.994;2023-02-15T09:16:05;3.80;99.90
6164;DHT22;3114;48.362;10.994;2023-02-15T09:18:34;3.90;99.90
6164;DHT22;3114;48.362;10.994;2023-02-15T09:21:10;4.00;99.90
6164;DHT22;3114;48.362;10.994;2023-02-15T09:23:39;4.10;99.90
6164;DHT22;3114;48.362;10.994;2023-02-15T09:26:09;4.20;99.90
6164;DHT22;3114;48.362;10.994;2023-02-15T09:28:36;4.30;99.90
6164;DHT22;3114;48.362;10.994;2023-02-15T09:31:08;4.30;99.90
6164;DHT22;3114;48.362;10.994;2023-02-15T09:33:37;4.20;99.90
6164;DHT22;3114;48.362;10.994;2023-02-15T09:36:05;4.20;99.90
6164;DHT22;3114;48.362;10.994;2023-02-15T09:38:32;4.30;99.90
6164;DHT22;3114;48.362;10.994;2023-02-15T09:41:13;4.30;99.90
6164;DHT22;3114;48.362;10.994;2023-02-15T09:43:48;4.30;99.90
6164;DHT22;3114;48.362;10.994;2023-02-15T09:46:36;4.40;99.90
6164;DHT22;3114;48.362;10.994;2023-02-15T09:49:13;4.60;99.90
6164;DHT22;3114;48.362;10.994;2023-02-15T09:52:09;4.50;99.90
6164;DHT22;3114;48.362;10.994;2023-02-15T09:54:48;4.60;99.90
6164;DHT22;3114;48.362;10.994;2023-02-15T09:57:23;4.70;99.90
6164;DHT22;3114;48.362;10.994;2023-02-15T09:59:59;4.70;99.90
6164;DHT22;3114;48.362;10.994;2023-02-15T10:02:38;4.20;99.90
6164;DHT22;3114;48.362;10.994;2023-02-15T10:05:18;3.80;99.90
6164;DHT22;3114;48.362;10.994;2023-02-15T10:10:59;4.20;99.90
6164;DHT22;3114;48.362;10.994;2023-02-15T10:13:57;3.70;99.90
6164;DHT22;3114;48.362;10.994;2023-02-15T10:16:39;3.90;99.90
6164;DHT22;3114;48.362;10.994;2023-02-15T10:19:13;4.10;99.90
6164;DHT22;3114;48.362;10.994;2023-02-15T10:21:50;4.30;99.90
6164;DHT22;3114;48.362;10.994;2023-02-15T10:24:52;4.50;99.90
6164;DHT22;3114;48.362;10.994;2023-02-15T10:27:21;4.60;99.90
6164;DHT22;3114;48.362;10.994;2023-02-15T10:29:58;4.50;99.90
6164;DHT22;3114;48.362;10.994;2023-02-15T10:32:31;4.70;99.90
6164;DHT22;3114;48.362;10.994;2023-02-15T10:35:01;4.70;99.90
6164;DHT22;3114;48.362;10.994;2023-02-15T10:37:49;4.80;99.90
6164;DHT22;3114;48.362;10.994;2023-02-15T10:40:25;5.00;99.90
6164;DHT22;3114;48.362;10.994;2023-02-15T10:45:57;5.10;99.90
6164;DHT22;3114;48.362;10.994;2023-02-15T10:51:22;5.10;99.90
6164;DHT22;3114;48.362;10.994;2023-02-15T10:54:02;5.30;99.90
6164;DHT22;3114;48.362;10.994;2023-02-15T10:56:36;5.60;99.90
6164;DHT22;3114;48.362;10.994;2023-02-15T10:59:20;5.90;99.90
6164;DHT22;3114;48.362;10.994;2023-02-15T11:01:55;5.90;99.90
6164;DHT22;3114;48.362;10.994;2023-02-15T11:04:37;6.20;99.90
6164;DHT22;3114;48.362;10.994;2023-02-15T11:07:11;6.30;99.90
6164;DHT22;3114;48.362;10.994;2023-02-15T11:09:44;6.40;99.90
6164;DHT22;3114;48.362;10.994;2023-02-15T11:12:15;6.30;99.90
6164;DHT22;3114;48.362;10.994;2023-02-15T11:14:47;6.40;99.90
6164;DHT22;3114;48.362;10.994;2023-02-15T11:17:21;6.60;99.90
6164;DHT22;3114;48.362;10.994;2023-02-15T11:22:19;6.90;99.90
6164;DHT22;3114;48.362;10.994;2023-02-15T11:24:46;7.00;99.90
6164;DHT22;3114;48.362;10.994;2023-02-15T11:44:53;5.80;99.90
6164;DHT22;3114;48.362;10.994;2023-02-15T11:47:24;5.70;99.90
6164;DHT22;3114;48.362;10.994;2023-02-15T11:49:54;5.50;99.90
6164;DHT22;3114;48.362;10.994;2023-02-15T11:52:21;5.70;99.90
6164;DHT22;3114;48.362;10.994;2023-02-15T12:12:21;7.40;99.90
6164;DHT22;3114;48.362;10.994;2023-02-15T12:14:51;8.10;99.90
6164;DHT22;3114;48.362;10.994;2023-02-15T12:17:21;9.90;99.90
6164;DHT22;3114;48.362;10.994;2023-02-15T12:19:52;11.80;99.90
6164;DHT22;3114;48.362;10.994;2023-02-15T12:22:24;14.30;99.90
6164;DHT22;3114;48.362;10.994;2023-02-15T12:24:53;15.90;99.90
6164;DHT22;3114;48.362;10.994;2023-02-15T12:27:22;17.80;99.90
6164;DHT22;3114;48.362;10.994;2023-02-15T12:29:52;19.50;99.90
6164;DHT22;3114;48.362;10.994;2023-02-15T12:32:23;20.20;99.90
6164;DHT22;3114;48.362;10.994;2023-02-15T12:34:55;21.90;99.90
6164;DHT22;3114;48.362;10.994;2023-02-15T12:37:27;22.70;99.90
6164;DHT22;3114;48.362;10.994;2023-02-15T12:39:58;22.90;99.90
6164;DHT22;3114;48.362;10.994;2023-02-15T12:42:26;24.20;99.90
6164;DHT22;3114;48.362;10.994;2023-02-15T12:44:57;24.80;99.90
6164;DHT22;3114;48.362;10.994;2023-02-15T12:47:25;26.50;99.90
6164;DHT22;3114;48.362;10.994;2023-02-15T12:50:21;27.10;99.90
6164;DHT22;3114;48.362;10.994;2023-02-15T12:52:50;28.90;99.90
6164;DHT22;3114;48.362;10.994;2023-02-15T12:55:25;28.50;99.90
6164;DHT22;3114;48.362;10.994;2023-02-15T12:58:06;28.10;99.90
6164;DHT22;3114;48.362;10.994;2023-02-15T13:00:34;26.80;99.90
6164;DHT22;3114;48.362;10.994;2023-02-15T13:03:01;25.90;99.90
6164;DHT22;3114;48.362;10.994;2023-02-15T13:05:35;26.10;99.90
6164;DHT22;3114;48.362;10.994;2023-02-15T13:08:09;27.10;99.90
6164;DHT22;3114;48.362;10.994;2023-02-15T13:10:41;28.00;99.90
6164;DHT22;3114;48.362;10.994;2023-02-15T13:13:10;29.30;99.90
6164;DHT22;3114;48.362;10.994;2023-02-15T13:15:40;30.10;99.90
6164;DHT22;3114;48.362;10.994;2023-02-15T13:18:12;31.60;99.90
6164;DHT22;3114;48.362;10.994;2023-02-15T13:20:44;31.30;99.90
6164;DHT22;3114;48.362;10.994;2023-02-15T13:23:24;31.40;99.90
6164;DHT22;3114;48.362;10.994;2023-02-15T13:25:54;30.20;99.90
6164;DHT22;3114;48.362;10.994;2023-02-15T13:28:25;29.60;99.90
6164;DHT22;3114;48.362;10.994;2023-02-15T13:30:53;28.30;99.90
6164;DHT22;3114;48.362;10.994;2023-02-15T13:33:25;27.10;99.90
6164;DHT22;3114;48.362;10.994;2023-02-15T13:36:02;26.60;99.90
6164;DHT22;3114;48.362;10.994;2023-02-15T13:38:48;25.80;99.90
6164;DHT22;3114;48.362;10.994;2023-02-15T13:41:19;25.30;99.90
6164;DHT22;3114;48.362;10.994;2023-02-15T13:43:55;25.00;99.90
6164;DHT22;3114;48.362;10.994;2023-02-15T13:46:38;24.20;99.90
6164;DHT22;3114;48.362;10.994;2023-02-15T13:49:17;24.00;99.90
6164;DHT22;3114;48.362;10.994;2023-02-15T13:51:53;22.40;99.90
6164;DHT22;3114;48.362;10.994;2023-02-15T13:54:38;20.80;99.90
6164;DHT22;3114;48.362;10.994;2023-02-15T13:57:26;20.90;99.90
6164;DHT22;3114;48.362;10.994;2023-02-15T14:00:08;21.90;99.90
6164;DHT22;3114;48.362;10.994;2023-02-15T14:03:03;23.20;99.90
6164;DHT22;3114;48.362;10.994;2023-02-15T14:05:39;23.90;99.90
6164;DHT22;3114;48.362;10.994;2023-02-15T14:08:13;24.10;99.90
6164;DHT22;3114;48.362;10.994;2023-02-15T14:10:52;23.40;99.90
6164;DHT22;3114;48.362;10.994;2023-02-15T14:14:01;23.40;99.90
6164;DHT22;3114;48.362;10.994;2023-02-15T14:16:39;22.50;99.90
6164;DHT22;3114;48.362;10.994;2023-02-15T14:19:18;21.10;99.90
6164;DHT22;3114;48.362;10.994;2023-02-15T14:21:50;19.20;99.90
6164;DHT22;3114;48.362;10.994;2023-02-15T14:24:27;18.30;99.90
6164;DHT22;3114;48.362;10.994;2023-02-15T14:27:04;17.90;99.90
6164;DHT22;3114;48.362;10.994;2023-02-15T14:29:47;17.50;99.90
6164;DHT22;3114;48.362;10.994;2023-02-15T14:32:19;17.50;99.90
6164;DHT22;3114;48.362;10.994;2023-02-15T14:34:50;17.10;99.90
6164;DHT22;3114;48.362;10.994;2023-02-15T14:37:22;16.80;99.90
6164;DHT22;3114;48.362;10.994;2023-02-15T14:39:57;16.40;99.90
6164;DHT22;3114;48.362;10.994;2023-02-15T14:42:47;15.50;99.90
6164;DHT22;3114;48.362;10.994;2023-02-15T14:45:21;14.70;99.90
6164;DHT22;3114;48.362;10.994;2023-02-15T14:47:57;14.00;99.90
6164;DHT22;3114;48.362;10.994;2023-02-15T14:50:42;13.20;99.90
6164;DHT22;3114;48.362;10.994;2023-02-15T14:56:24;12.60;99.90
6164;DHT22;3114;48.362;10.994;2023-02-15T15:01:57;12.20;99.90
6164;DHT22;3114;48.362;10.994;2023-02-15T15:04:28;12.00;99.90
6164;DHT22;3114;48.362;10.994;2023-02-15T15:07:03;11.80;99.90
6164;DHT22;3114;48.362;10.994;2023-02-15T15:09:35;11.60;99.90
6164;DHT22;3114;48.362;10.994;2023-02-15T15:14:57;11.30;99.90
6164;DHT22;3114;48.362;10.994;2023-02-15T15:17:52;11.20;99.90
6164;DHT22;3114;48.362;10.994;2023-02-15T15:20:38;11.00;99.90
6164;DHT22;3114;48.362;10.994;2023-02-15T15:23:41;11.00;99.90
6164;DHT22;3114;48.362;10.994;2023-02-15T15:26:23;11.00;99.90
6164;DHT22;3114;48.362;10.994;2023-02-15T15:28:56;10.80;99.90
6164;DHT22;3114;48.362;10.994;2023-02-15T15:31:30;10.60;99.90
6164;DHT22;3114;48.362;10.994;2023-02-15T15:34:21;10.50;99.90
6164;DHT22;3114;48.362;10.994;2023-02-15T15:37:17;10.30;99.90
6164;DHT22;3114;48.362;10.994;2023-02-15T15:40:22;10.30;99.90
6164;DHT22;3114;48.362;10.994;2023-02-15T15:46:27;10.20;99.90
6164;DHT22;3114;48.362;10.994;2023-02-15T15:49:01;10.00;99.90
6164;DHT22;3114;48.362;10.994;2023-02-15T15:51:31;9.80;99.90
6164;DHT22;3114;48.362;10.994;2023-02-15T15:54:00;9.80;99.90
6164;DHT22;3114;48.362;10.994;2023-02-15T15:56:30;9.70;99.90
6164;DHT22;3114;48.362;10.994;2023-02-15T15:59:00;9.70;99.90
6164;DHT22;3114;48.362;10.994;2023-02-15T16:01:30;9.80;99.90
6164;DHT22;3114;48.362;10.994;2023-02-15T16:03:58;9.70;99.90
6164;DHT22;3114;48.362;10.994;2023-02-15T16:06:31;9.60;99.90
6164;DHT22;3114;48.362;10.994;2023-02-15T16:09:14;9.50;99.90
6164;DHT22;3114;48.362;10.994;2023-02-15T16:11:42;9.40;99.90
6164;DHT22;3114;48.362;10.994;2023-02-15T16:14:14;9.30;99.90
6164;DHT22;3114;48.362;10.994;2023-02-15T16:16:48;9.30;99.90
6164;DHT22;3114;48.362;10.994;2023-02-15T16:19:22;9.20;99.90
6164;DHT22;3114;48.362;10.994;2023-02-15T16:21:50;9.10;99.90
6164;DHT22;3114;48.362;10.994;2023-02-15T16:24:25;8.90;99.90
6164;DHT22;3114;48.362;10.994;2023-02-15T16:27:09;8.60;99.90
6164;DHT22;3114;48.362;10.994;2023-02-15T16:29:38;8.50;99.90
6164;DHT22;3114;48.362;10.994;2023-02-15T16:32:18;8.50;99.90
6164;DHT22;3114;48.362;10.994;2023-02-15T16:34:53;8.50;99.90
6164;DHT22;3114;48.362;10.994;2023-02-15T16:37:21;8.40;99.90
6164;DHT22;3114;48.362;10.994;2023-02-15T16:39:51;8.40;99.90
6164;DHT22;3114;48.362;10.994;2023-02-15T16:42:18;8.30;99.90
6164;DHT22;3114;48.362;10.994;2023-02-15T16:44:47;8.10;99.90
6164;DHT22;3114;48.362;10.994;2023-02-15T16:47:21;8.00;99.90
6164;DHT22;3114;48.362;10.994;2023-02-15T16:49:50;8.00;99.90
6164;DHT22;3114;48.362;10.994;2023-02-15T16:52:21;8.00;99.90
6164;DHT22;3114;48.362;10.994;2023-02-15T16:54:53;7.90;99.90
6164;DHT22;3114;48.362;10.994;2023-02-15T16:57:24;7.80;99.90
6164;DHT22;3114;48.362;10.994;2023-02-15T16:59:54;7.70;99.90
6164;DHT22;3114;48.362;10.994;2023-02-15T17:02:26;7.70;99.90
6164;DHT22;3114;48.362;10.994;2023-02-15T17:05:10;7.50;99.90
6164;DHT22;3114;48.362;10.994;2023-02-15T17:07:48;7.50;99.90
6164;DHT22;3114;48.362;10.994;2023-02-15T17:10:28;7.50;99.90
6164;DHT22;3114;48.362;10.994;2023-02-15T17:12:59;7.30;99.90
6164;DHT22;3114;48.362;10.994;2023-02-15T17:15:29;7.30;99.90
6164;DHT22;3114;48.362;10.994;2023-02-15T17:18:01;7.20;99.90
6164;DHT22;3114;48.362;10.994;2023-02-15T17:20:30;7.20;99.90
6164;DHT22;3114;48.362;10.994;2023-02-15T17:22:58;7.10;99.90
6164;DHT22;3114;48.362;10.994;2023-02-15T17:25:33;6.90;99.90
6164;DHT22;3114;48.362;10.994;2023-02-15T17:28:01;6.90;99.90
6164;DHT22;3114;48.362;10.994;2023-02-15T17:30:30;6.80;99.90